Time;durP1;ratioP1;P1;durP2;ratioP2;P2;SDS_P1;SDS_P2;PMS_P1;PMS_P2;Temp;Humidity;BMP_temperature;BMP_pressure;BME280_temperature;BME280_humidity;BME280_pressure;Samples;Min_cycle;Max_cycle;Signal;HPM_P1;HPM_P2
2021/09/28 00:01:39;;;;;;;1.37;1.30;;;;;;;15.48;86.33;97279.25;5113099;28;20179;-62
2021/09/28 00:04:04;;;;;;;1.30;1.30;;;;;;;15.46;85.86;97307.75;5101259;28;20175;-61
2021/09/28 00:06:30;;;;;;;1.50;1.50;;;;;;;15.35;86.74;97298.91;5119526;28;20218;-61
2021/09/28 00:08:55;;;;;;;1.90;1.80;;;;;;;15.29;88.21;97304.34;5119899;28;20194;-62
2021/09/28 00:11:21;;;;;;;1.33;1.30;;;;;;;15.16;89.86;97297.56;5119575;28;20380;-61
2021/09/28 00:13:46;;;;;;;1.53;1.53;;;;;;;14.84;91.29;97302.66;5119048;28;20199;-63
2021/09/28 00:16:12;;;;;;;1.50;1.50;;;;;;;14.78;91.51;97311.53;5119647;28;20219;-62
2021/09/28 00:18:37;;;;;;;1.50;1.50;;;;;;;14.76;92.30;97308.34;5119284;28;20176;-62
2021/09/28 00:21:02;;;;;;;1.67;1.67;;;;;;;14.64;92.65;97293.63;5119072;28;20195;-62
2021/09/28 00:23:28;;;;;;;1.50;1.50;;;;;;;14.49;93.57;97297.59;5119571;28;20199;-63
2021/09/28 00:25:53;;;;;;;1.93;1.93;;;;;;;14.40;94.17;97295.59;5119778;28;20180;-62
2021/09/28 00:28:19;;;;;;;1.40;1.40;;;;;;;14.45;93.05;97301.75;5119688;28;20191;-62
2021/09/28 00:30:45;;;;;;;1.70;1.70;;;;;;;14.64;93.57;97301.53;5119251;28;20222;-62
2021/09/28 00:33:11;;;;;;;1.70;1.63;;;;;;;14.46;93.23;97311.28;5119267;28;20188;-62
2021/09/28 00:35:43;;;;;;;1.90;1.80;;;;;;;14.43;93.96;97318.88;5119081;28;20234;-62
2021/09/28 00:38:08;;;;;;;1.90;1.60;;;;;;;14.32;94.57;97331.03;5120061;28;20179;-62
2021/09/28 00:40:34;;;;;;;2.40;2.30;;;;;;;14.22;97.52;97325.56;5119294;28;20258;-62
2021/09/28 00:42:59;;;;;;;2.83;2.63;;;;;;;13.94;99.75;97341.38;5119256;28;20176;-62
2021/09/28 00:45:25;;;;;;;3.37;3.23;;;;;;;14.03;99.52;97334.72;5118839;28;20179;-62
2021/09/28 00:47:52;;;;;;;4.13;2.83;;;;;;;13.83;100.00;97347.47;5118811;28;20592;-62
2021/09/28 00:50:18;;;;;;;2.83;2.73;;;;;;;14.01;100.00;97358.66;5118878;28;20235;-62
2021/09/28 00:52:46;;;;;;;3.20;3.10;;;;;;;13.65;99.30;97358.97;5119224;28;20262;-63
2021/09/28 00:55:14;;;;;;;3.13;2.90;;;;;;;13.64;99.51;97366.09;5118272;28;20243;-62
2021/09/28 00:57:40;;;;;;;3.30;3.10;;;;;;;14.02;97.73;97368.19;5119570;28;20180;-62
2021/09/28 01:00:07;;;;;;;3.37;3.23;;;;;;;14.13;95.63;97369.16;5119136;28;20187;-62
2021/09/28 01:02:33;;;;;;;2.90;2.70;;;;;;;14.23;97.12;97379.09;5119245;28;20192;-62
2021/09/28 01:05:02;;;;;;;3.63;2.77;;;;;;;13.91;98.95;97379.53;5118726;28;20187;-63
2021/09/28 01:07:28;;;;;;;3.00;2.70;;;;;;;13.82;100.00;97396.72;5118888;28;20724;-63
2021/09/28 01:09:53;;;;;;;2.83;2.60;;;;;;;13.54;98.15;97394.03;5119446;28;20171;-63
2021/09/28 01:12:19;;;;;;;3.20;3.00;;;;;;;13.04;100.00;97398.91;5118482;28;20215;-62
2021/09/28 01:14:44;;;;;;;2.80;2.63;;;;;;;13.18;100.00;97393.22;5116716;28;20176;-62
2021/09/28 01:17:13;;;;;;;1.70;1.70;;;;;;;13.37;100.00;97395.75;5116231;28;20176;-63
2021/09/28 01:19:38;;;;;;;2.80;2.20;;;;;;;13.19;100.00;97397.47;5115899;28;20176;-62
2021/09/28 01:22:06;;;;;;;2.30;2.10;;;;;;;13.26;100.00;97407.88;5115607;28;20210;-62
2021/09/28 01:24:31;;;;;;;2.10;2.00;;;;;;;13.49;100.00;97410.50;5097085;28;20596;-62
2021/09/28 01:26:57;;;;;;;1.70;1.60;;;;;;;13.45;100.00;97411.19;5115809;28;20210;-62
2021/09/28 01:29:22;;;;;;;2.10;1.60;;;;;;;13.38;100.00;97419.22;5097367;28;20179;-62
2021/09/28 01:31:48;;;;;;;3.43;1.87;;;;;;;13.41;100.00;97410.88;5115131;28;20302;-62
2021/09/28 01:34:16;;;;;;;3.10;1.73;;;;;;;13.36;100.00;97425.75;5097202;28;20184;-62
2021/09/28 01:36:41;;;;;;;2.50;1.60;;;;;;;12.95;100.00;97424.72;5113520;28;20207;-62
2021/09/28 01:39:07;;;;;;;1.50;1.43;;;;;;;13.16;100.00;97431.31;5115015;28;20212;-62
2021/09/28 01:41:33;;;;;;;1.80;1.70;;;;;;;13.29;99.71;97434.56;5115580;28;20258;-61
2021/09/28 01:44:25;;;;;;;2.00;1.90;;;;;;;13.25;100.00;97436.03;5096842;28;20184;-61
2021/09/28 01:46:50;;;;;;;2.50;1.70;;;;;;;13.26;98.48;97435.00;5109420;28;20192;-61
2021/09/28 01:49:18;;;;;;;2.10;1.73;;;;;;;13.37;98.35;97436.06;5115437;28;20222;-61
2021/09/28 01:51:44;;;;;;;1.63;1.40;;;;;;;13.30;98.50;97445.88;5114997;28;20611;-61
2021/09/28 01:54:10;;;;;;;4.10;2.53;;;;;;;13.27;97.29;97438.44;5115343;28;20219;-61
2021/09/28 01:56:36;;;;;;;1.70;1.60;;;;;;;13.34;97.00;97439.13;5114460;28;20230;-61
2021/09/28 01:59:03;;;;;;;2.43;2.00;;;;;;;13.02;96.30;97435.16;5115026;28;20184;-61
2021/09/28 02:01:29;;;;;;;1.83;1.73;;;;;;;12.97;97.76;97422.69;5115192;28;20241;-61
2021/09/28 02:03:54;;;;;;;1.63;1.47;;;;;;;13.21;97.28;97437.50;5115403;28;20569;-61
2021/09/28 02:06:22;;;;;;;2.17;2.07;;;;;;;13.15;95.76;97427.88;5115049;28;20271;-62
2021/09/28 02:08:48;;;;;;;6.10;2.77;;;;;;;13.19;94.94;97428.25;5115055;28;20601;-61
2021/09/28 02:11:14;;;;;;;2.20;1.73;;;;;;;13.04;95.35;97441.00;5114241;28;20733;-61
2021/09/28 02:13:40;;;;;;;2.20;1.97;;;;;;;13.15;94.98;97437.63;5099101;28;20168;-60
2021/09/28 02:16:06;;;;;;;2.03;1.93;;;;;;;13.26;94.39;97429.72;5115302;28;20211;-61
2021/09/28 02:18:32;;;;;;;2.60;2.50;;;;;;;13.23;93.68;97438.09;5115304;28;20184;-61
2021/09/28 02:20:57;;;;;;;2.67;2.47;;;;;;;13.21;95.08;97428.81;5096370;28;20315;-61
2021/09/28 02:23:23;;;;;;;2.47;2.30;;;;;;;13.27;94.42;97436.59;5114170;28;20179;-61
2021/09/28 02:25:48;;;;;;;3.10;1.93;;;;;;;13.23;94.53;97421.50;5113411;28;20263;-61
2021/09/28 02:28:14;;;;;;;2.30;2.10;;;;;;;13.42;92.29;97427.47;5114350;28;20266;-60
2021/09/28 02:30:39;;;;;;;3.77;2.60;;;;;;;13.38;93.41;97423.66;5114312;28;20192;-61
2021/09/28 02:33:05;;;;;;;2.63;2.47;;;;;;;13.53;92.27;97414.31;5114450;28;20180;-61
2021/09/28 02:35:31;;;;;;;2.30;2.20;;;;;;;13.43;92.15;97414.06;5095711;28;20587;-61
2021/09/28 02:37:57;;;;;;;3.30;2.10;;;;;;;13.43;91.92;97426.44;5114027;28;20187;-61
2021/09/28 02:40:23;;;;;;;1.90;1.80;;;;;;;13.44;93.64;97430.66;5096182;28;20195;-61
2021/09/28 02:42:49;;;;;;;2.57;2.37;;;;;;;13.66;92.79;97427.22;5114342;28;20188;-61
2021/09/28 02:45:15;;;;;;;1.90;1.80;;;;;;;13.57;93.63;97423.34;5113605;28;20224;-61
2021/09/28 02:47:41;;;;;;;2.40;1.83;;;;;;;13.69;91.48;97420.72;5113736;28;20186;-61
2021/09/28 02:50:07;;;;;;;2.73;2.33;;;;;;;13.74;91.41;97420.81;5113619;28;20186;-61
2021/09/28 02:52:32;;;;;;;3.43;2.07;;;;;;;13.64;91.62;97413.50;5113933;28;20187;-61
2021/09/28 02:54:58;;;;;;;1.63;1.53;;;;;;;13.72;91.67;97414.97;5113493;28;20178;-61
2021/09/28 02:57:23;;;;;;;1.87;1.60;;;;;;;13.73;91.99;97414.75;5095844;28;20176;-61
2021/09/28 02:59:48;;;;;;;1.80;1.70;;;;;;;13.82;90.86;97415.19;5113445;28;20176;-61
2021/09/28 03:02:14;;;;;;;2.10;1.53;;;;;;;13.75;90.81;97422.44;5113806;28;20663;-61
2021/09/28 03:04:39;;;;;;;2.73;1.50;;;;;;;13.73;90.96;97425.28;5113406;28;20701;-61
2021/09/28 03:07:05;;;;;;;2.20;1.70;;;;;;;13.80;91.10;97424.38;5113437;28;20184;-61
2021/09/28 03:09:30;;;;;;;1.40;1.40;;;;;;;13.58;92.34;97422.31;5113921;28;20203;-61
2021/09/28 03:11:56;;;;;;;2.40;1.50;;;;;;;13.61;91.07;97419.22;5113213;28;20256;-61
2021/09/28 03:14:22;;;;;;;6.27;1.90;;;;;;;13.65;91.16;97422.22;5113617;28;20275;-61
2021/09/28 03:16:48;;;;;;;2.33;2.20;;;;;;;13.58;91.48;97424.94;5113500;28;20192;-61
2021/09/28 03:19:15;;;;;;;1.80;1.70;;;;;;;13.48;90.91;97416.81;5113170;28;20241;-61
2021/09/28 03:21:41;;;;;;;3.33;2.07;;;;;;;13.56;91.01;97413.03;5110756;28;20216;-61
2021/09/28 03:24:07;;;;;;;3.60;1.93;;;;;;;13.57;91.05;97414.63;5110458;28;20257;-61
2021/09/28 03:26:32;;;;;;;5.70;1.97;;;;;;;13.61;90.93;97418.41;5113387;28;20711;-61
2021/09/28 03:28:57;;;;;;;1.80;1.70;;;;;;;13.67;90.36;97413.03;5113703;28;20184;-61
2021/09/28 03:31:23;;;;;;;2.07;1.93;;;;;;;13.55;91.26;97419.31;5112629;28;20211;-61
2021/09/28 03:33:48;;;;;;;2.23;2.03;;;;;;;13.56;91.75;97413.84;5113163;28;20200;-61
2021/09/28 03:36:13;;;;;;;3.60;2.70;;;;;;;13.60;90.48;97419.44;5113314;28;20215;-61
2021/09/28 03:38:39;;;;;;;2.70;2.00;;;;;;;13.53;90.84;97416.94;5112618;28;20266;-61
2021/09/28 03:41:04;;;;;;;4.23;2.77;;;;;;;13.37;92.45;97432.63;5095002;28;20191;-61
2021/09/28 03:43:30;;;;;;;2.20;2.07;;;;;;;13.50;91.63;97435.81;5112447;28;20180;-61
2021/09/28 03:45:55;;;;;;;2.30;2.20;;;;;;;13.52;90.54;97438.22;5112653;28;20184;-61
2021/09/28 03:48:22;;;;;;;3.30;2.37;;;;;;;13.39;92.44;97433.19;5094933;28;20733;-61
2021/09/28 03:50:47;;;;;;;3.27;2.53;;;;;;;13.39;91.50;97439.25;5113014;28;20226;-61
2021/09/28 03:53:13;;;;;;;2.47;2.30;;;;;;;13.39;91.15;97444.50;5094619;28;20634;-61
2021/09/28 03:55:38;;;;;;;2.73;2.53;;;;;;;13.33;91.54;97435.69;5112856;28;20227;-61
2021/09/28 03:58:04;;;;;;;4.40;2.73;;;;;;;13.26;92.54;97435.00;5112931;28;20184;-61
2021/09/28 04:00:30;;;;;;;3.00;2.80;;;;;;;13.30;92.43;97446.69;5111867;28;20251;-61
2021/09/28 04:02:56;;;;;;;2.57;2.47;;;;;;;13.23;93.06;97446.00;5112381;28;20176;-61
2021/09/28 04:05:21;;;;;;;4.10;3.47;;;;;;;13.22;93.40;97439.13;5112756;28;20673;-61
2021/09/28 04:07:47;;;;;;;3.37;3.07;;;;;;;13.31;93.00;97436.97;5112841;28;20652;-61
2021/09/28 04:10:12;;;;;;;3.13;3.00;;;;;;;13.35;91.74;97438.09;5112212;28;20186;-61
2021/09/28 04:12:38;;;;;;;2.80;2.57;;;;;;;13.33;92.01;97437.53;5112936;28;20188;-61
2021/09/28 04:15:05;;;;;;;4.40;3.30;;;;;;;13.15;93.10;97443.66;5112790;28;20180;-61
2021/09/28 04:17:31;;;;;;;4.17;3.33;;;;;;;13.16;92.96;97444.47;5112453;28;20180;-61
2021/09/28 04:19:57;;;;;;;3.43;3.13;;;;;;;12.96;95.20;97436.88;5112733;28;20179;-62
2021/09/28 04:22:23;;;;;;;4.77;3.03;;;;;;;12.94;94.06;97446.81;5113438;28;20280;-61
2021/09/28 04:24:50;;;;;;;2.73;2.60;;;;;;;13.00;93.97;97443.28;5112609;28;20190;-61
2021/09/28 04:27:19;;;;;;;2.93;2.40;;;;;;;12.91;95.06;97440.19;5112212;28;20180;-61
2021/09/28 04:29:45;;;;;;;3.20;2.30;;;;;;;12.95;95.89;97440.53;5112795;28;20180;-61
2021/09/28 04:32:12;;;;;;;2.13;2.03;;;;;;;12.99;94.79;97438.22;5111854;28;20204;-61
2021/09/28 04:34:37;;;;;;;3.80;2.33;;;;;;;13.02;93.95;97443.06;5112794;28;20181;-61
2021/09/28 04:37:04;;;;;;;4.10;2.40;;;;;;;12.81;95.36;97453.09;5112783;28;20180;-61
2021/09/28 04:39:30;;;;;;;4.27;2.60;;;;;;;12.88;94.97;97455.59;5112740;28;20233;-61
2021/09/28 04:41:55;;;;;;;3.97;2.80;;;;;;;12.84;94.92;97457.06;5112529;28;20266;-61
2021/09/28 04:44:21;;;;;;;2.63;2.43;;;;;;;12.76;95.89;97450.28;5111751;28;20199;-61
2021/09/28 04:46:47;;;;;;;3.67;2.30;;;;;;;12.82;95.66;97448.59;5112563;28;20172;-61
2021/09/28 04:49:12;;;;;;;3.43;2.27;;;;;;;12.77;95.03;97443.19;5112626;28;20313;-61
2021/09/28 04:51:37;;;;;;;5.53;2.43;;;;;;;12.63;95.89;97447.84;5115915;28;20204;-61
2021/09/28 04:54:03;;;;;;;3.53;2.40;;;;;;;12.64;95.48;97446.84;5115232;28;20486;-61
2021/09/28 04:56:29;;;;;;;2.47;2.27;;;;;;;12.66;95.60;97455.28;5097571;28;20220;-61
2021/09/28 04:58:55;;;;;;;2.43;2.20;;;;;;;12.64;95.89;97451.28;5115806;28;20176;-61
2021/09/28 05:01:20;;;;;;;2.57;2.47;;;;;;;12.64;95.82;97453.94;5115765;28;20179;-61
2021/09/28 05:03:45;;;;;;;2.40;2.20;;;;;;;12.49;96.78;97455.09;5114987;28;20322;-61
2021/09/28 05:06:14;;;;;;;3.17;2.30;;;;;;;12.39;97.24;97451.41;5115898;28;20184;-61
2021/09/28 05:08:39;;;;;;;2.77;2.53;;;;;;;12.45;96.91;97458.41;5115047;28;20191;-61
2021/09/28 05:11:08;;;;;;;2.70;2.40;;;;;;;12.51;96.20;97457.53;5115574;28;20196;-61
2021/09/28 05:13:34;;;;;;;3.80;2.37;;;;;;;12.44;96.23;97457.59;5115464;28;20172;-61
2021/09/28 05:15:59;;;;;;;2.77;2.57;;;;;;;12.58;95.40;97460.06;5115623;28;20198;-61
2021/09/28 05:18:25;;;;;;;4.10;2.23;;;;;;;12.45;96.56;97467.09;5115737;28;20518;-62
2021/09/28 05:20:50;;;;;;;2.97;2.70;;;;;;;12.47;96.34;97477.41;5115765;28;20648;-61
2021/09/28 05:23:15;;;;;;;3.77;2.63;;;;;;;12.40;96.51;97474.84;5115068;28;20278;-61
2021/09/28 05:25:41;;;;;;;4.77;2.70;;;;;;;12.45;96.75;97474.19;5115847;28;20241;-61
2021/09/28 05:28:06;;;;;;;2.83;2.60;;;;;;;12.45;96.53;97469.72;5115557;28;20588;-61
2021/09/28 05:30:31;;;;;;;2.83;2.50;;;;;;;12.42;97.19;97478.06;5097105;28;20207;-61
2021/09/28 05:32:57;;;;;;;4.07;3.00;;;;;;;12.47;96.26;97465.06;5114894;28;20230;-62
2021/09/28 05:35:22;;;;;;;3.53;2.30;;;;;;;12.38;96.87;97481.34;5096889;28;20180;-61
2021/09/28 05:37:48;;;;;;;3.83;2.70;;;;;;;12.37;96.96;97483.16;5115447;28;20179;-61
2021/09/28 05:40:13;;;;;;;3.33;2.70;;;;;;;12.61;95.78;97480.66;5115064;28;20184;-61
2021/09/28 05:42:39;;;;;;;2.77;2.50;;;;;;;12.74;95.12;97480.50;5114853;28;20176;-61
2021/09/28 05:45:05;;;;;;;5.00;2.83;;;;;;;12.83;94.22;97490.47;5114793;28;20180;-61
2021/09/28 05:47:31;;;;;;;3.10;2.90;;;;;;;12.79;93.67;97489.31;5115274;28;20176;-61
2021/09/28 05:49:56;;;;;;;3.10;2.87;;;;;;;12.64;95.01;97488.13;5114647;28;20228;-61
2021/09/28 05:52:22;;;;;;;3.53;2.97;;;;;;;12.71;94.95;97494.88;5114421;28;20215;-61
2021/09/28 05:54:48;;;;;;;4.67;2.90;;;;;;;12.65;95.77;97497.63;5114574;28;20314;-60
2021/09/28 05:57:18;;;;;;;3.50;2.97;;;;;;;12.97;93.88;97499.00;5113582;28;20631;-61
2021/09/28 05:59:44;;;;;;;6.10;2.97;;;;;;;12.82;95.21;97502.00;5113963;28;20179;-61
2021/09/28 06:02:10;;;;;;;4.60;2.73;;;;;;;12.94;95.12;97502.06;5112886;28;20305;-61
2021/09/28 06:04:37;;;;;;;3.00;2.77;;;;;;;13.18;93.81;97495.88;5111812;28;20338;-61
2021/09/28 06:07:03;;;;;;;3.50;3.20;;;;;;;13.30;93.00;97499.34;5114032;28;20184;-61
2021/09/28 06:09:32;;;;;;;4.63;3.43;;;;;;;13.42;92.44;97496.75;5113911;28;20184;-62
2021/09/28 06:11:58;;;;;;;3.90;3.20;;;;;;;13.62;91.50;97496.41;5115141;28;20195;-62
2021/09/28 06:14:23;;;;;;;5.47;2.80;;;;;;;13.83;89.87;97492.41;5096383;28;20644;-62
2021/09/28 06:16:49;;;;;;;4.40;2.43;;;;;;;13.87;89.56;97489.09;5114700;28;20183;-62
2021/09/28 06:19:15;;;;;;;6.33;2.00;;;;;;;14.10;87.75;97489.06;5114580;28;20176;-62
2021/09/28 06:21:40;;;;;;;3.37;2.00;;;;;;;14.10;87.42;97493.53;5114894;28;20191;-62
2021/09/28 06:24:06;;;;;;;2.50;2.20;;;;;;;14.32;86.15;97491.88;5114047;28;20180;-62
2021/09/28 06:26:31;;;;;;;2.37;1.90;;;;;;;14.39;85.30;97494.44;5095883;28;20203;-62
2021/09/28 06:28:57;;;;;;;4.57;2.20;;;;;;;14.51;84.85;97495.19;5114362;28;20636;-62
2021/09/28 06:31:22;;;;;;;2.10;1.97;;;;;;;14.32;85.73;97488.47;5114028;28;20280;-62
2021/09/28 06:33:47;;;;;;;3.03;1.87;;;;;;;14.36;84.02;97490.41;5114290;28;20183;-62
2021/09/28 06:36:13;;;;;;;2.37;1.83;;;;;;;14.24;85.30;97491.44;5113126;28;20179;-62
2021/09/28 06:38:38;;;;;;;4.43;2.10;;;;;;;14.23;85.41;97495.13;5114846;28;20196;-62
2021/09/28 06:41:04;;;;;;;3.00;1.80;;;;;;;14.13;86.56;97499.16;5114154;28;20666;-62
2021/09/28 06:43:29;;;;;;;4.37;2.20;;;;;;;14.31;84.90;97490.31;5114094;28;20191;-62
2021/09/28 06:45:54;;;;;;;3.60;1.90;;;;;;;14.29;85.34;97489.72;5114299;28;20176;-62
2021/09/28 06:48:20;;;;;;;4.33;2.53;;;;;;;14.35;85.06;97494.06;5095845;28;20237;-63
2021/09/28 06:50:46;;;;;;;4.93;3.20;;;;;;;14.45;84.40;97499.56;5114014;28;20207;-62
2021/09/28 06:53:11;;;;;;;3.73;2.33;;;;;;;14.05;85.72;97501.31;5114060;28;20656;-62
2021/09/28 06:55:37;;;;;;;5.20;3.20;;;;;;;14.00;86.60;97488.03;5094129;28;20264;-62
2021/09/28 06:58:06;;;;;;;2.90;2.57;;;;;;;14.21;85.73;97484.03;5112806;28;20192;-62
2021/09/28 07:00:34;;;;;;;4.13;2.60;;;;;;;14.03;86.63;97480.50;5113038;28;20195;-62
2021/09/28 07:03:00;;;;;;;3.87;2.90;;;;;;;13.73;87.15;97479.81;5113115;28;20217;-62
2021/09/28 07:05:26;;;;;;;3.20;2.53;;;;;;;13.78;87.73;97481.75;5113871;28;20260;-62
2021/09/28 07:07:51;;;;;;;4.00;2.70;;;;;;;13.95;87.41;97474.75;5095242;28;20532;-62
2021/09/28 07:10:16;;;;;;;5.43;2.80;;;;;;;13.92;87.24;97478.66;5095513;28;20184;-62
2021/09/28 07:12:42;;;;;;;5.17;3.47;;;;;;;14.01;87.40;97477.28;5113250;28;20190;-62
2021/09/28 07:15:08;;;;;;;5.20;3.23;;;;;;;13.70;87.36;97483.72;5113950;28;20180;-62
2021/09/28 07:17:34;;;;;;;7.50;3.20;;;;;;;13.84;86.65;97475.56;5112988;28;20267;-62
2021/09/28 07:20:01;;;;;;;6.87;3.30;;;;;;;14.03;85.54;97477.03;5098489;28;20176;-62
2021/09/28 07:22:26;;;;;;;3.57;2.93;;;;;;;14.24;84.64;97479.06;5112301;28;20641;-62
2021/09/28 07:24:53;;;;;;;6.43;2.90;;;;;;;14.19;84.20;97481.59;5113083;28;20196;-62
2021/09/28 07:27:22;;;;;;;3.63;2.70;;;;;;;14.01;85.01;97485.19;5112989;28;20195;-63
2021/09/28 07:29:47;;;;;;;5.90;3.17;;;;;;;14.16;84.15;97482.06;5113152;28;20208;-62
2021/09/28 07:32:14;;;;;;;5.50;3.10;;;;;;;14.15;84.51;97477.84;5112721;28;20235;-63
2021/09/28 07:34:40;;;;;;;6.40;3.47;;;;;;;14.38;84.18;97477.00;5113477;28;20180;-62
2021/09/28 07:37:05;;;;;;;4.97;3.30;;;;;;;14.41;83.65;97481.81;5113264;28;20183;-63
2021/09/28 07:39:31;;;;;;;6.60;3.57;;;;;;;14.51;83.09;97482.81;5113288;28;20635;-63
2021/09/28 07:41:56;;;;;;;5.97;3.43;;;;;;;14.31;84.76;97478.94;5095047;28;20651;-64
2021/09/28 07:44:24;;;;;;;6.17;3.37;;;;;;;14.57;84.51;97475.81;5112585;28;20302;-63
2021/09/28 07:46:50;;;;;;;4.80;3.90;;;;;;;14.34;84.80;97481.91;5112789;28;20180;-63
2021/09/28 07:49:15;;;;;;;7.63;3.60;;;;;;;14.44;83.87;97479.50;5094410;28;20701;-63
2021/09/28 07:51:41;;;;;;;5.03;3.50;;;;;;;14.42;83.72;97484.22;5112495;28;20519;-63
2021/09/28 07:54:06;;;;;;;4.40;3.63;;;;;;;14.12;84.62;97478.28;5111970;28;20187;-63
2021/09/28 07:56:32;;;;;;;4.77;3.90;;;;;;;14.04;85.02;97489.97;5112235;28;20281;-63
2021/09/28 07:58:59;;;;;;;4.83;4.07;;;;;;;14.06;85.60;97482.66;5112651;28;20241;-63
2021/09/28 08:01:24;;;;;;;4.60;4.03;;;;;;;14.25;85.54;97488.59;5113380;28;20271;-63
2021/09/28 08:03:50;;;;;;;6.90;4.23;;;;;;;14.66;83.56;97486.78;5113074;28;20270;-63
2021/09/28 08:06:15;;;;;;;5.93;3.70;;;;;;;14.20;83.01;97479.78;5113020;28;20713;-63
2021/09/28 08:08:41;;;;;;;5.17;4.17;;;;;;;14.12;83.56;97487.00;5112744;28;20191;-63
2021/09/28 08:11:07;;;;;;;6.57;4.80;;;;;;;13.67;86.57;97485.97;5111610;28;20551;-63
2021/09/28 08:13:33;;;;;;;9.33;6.07;;;;;;;13.81;86.52;97483.94;5112568;28;20172;-62
2021/09/28 08:15:58;;;;;;;9.50;5.40;;;;;;;14.15;86.19;97488.38;5112837;28;20176;-63
2021/09/28 08:18:23;;;;;;;6.63;5.33;;;;;;;14.43;85.43;97493.72;5113065;28;20176;-63
2021/09/28 08:20:49;;;;;;;7.57;5.23;;;;;;;14.62;82.75;97485.66;5112592;28;20739;-63
2021/09/28 08:23:16;;;;;;;8.27;4.70;;;;;;;14.91;81.97;97489.91;5113384;28;20188;-63
2021/09/28 08:31:03;;;;;;;5.70;4.03;;;;;;;15.24;79.61;97495.25;5116813;28;20242;-63
2021/09/28 08:33:30;;;;;;;6.57;4.20;;;;;;;14.60;80.39;97493.78;5098502;28;20203;-62
2021/09/28 08:35:56;;;;;;;4.60;3.93;;;;;;;14.32;80.03;97496.38;5116680;28;20259;-63
2021/09/28 08:38:23;;;;;;;7.47;3.87;;;;;;;14.42;79.14;97497.41;5117002;28;20191;-63
2021/09/28 08:40:48;;;;;;;5.73;4.10;;;;;;;14.62;77.58;97490.94;5116982;28;20180;-63
2021/09/28 08:43:13;;;;;;;8.90;4.50;;;;;;;14.63;75.61;97492.53;5116907;28;20184;-63
2021/09/28 08:45:42;;;;;;;4.50;3.30;;;;;;;14.96;75.99;97497.91;5116679;28;20190;-62
2021/09/28 08:48:11;;;;;;;6.97;4.90;;;;;;;15.21;75.31;97487.00;5116790;28;20196;-63
2021/09/28 08:50:38;;;;;;;6.13;4.37;;;;;;;15.69;74.78;97497.84;5116671;28;20683;-63
2021/09/28 08:53:06;;;;;;;8.10;4.43;;;;;;;15.87;73.33;97488.88;5116668;28;20211;-63
2021/09/28 08:55:32;;;;;;;7.37;4.23;;;;;;;15.69;73.81;97487.28;5116279;28;20334;-63
2021/09/28 08:58:11;;;;;;;4.40;3.93;;;;;;;15.15;74.60;97486.13;5115913;28;20267;-63
2021/09/28 09:00:36;;;;;;;6.80;4.03;;;;;;;14.94;75.74;97492.06;5116573;28;20187;-63
2021/09/28 09:03:02;;;;;;;9.93;4.27;;;;;;;14.63;75.29;97485.41;5116279;28;20180;-63
2021/09/28 09:05:27;;;;;;;6.13;3.93;;;;;;;15.14;74.29;97489.78;5116381;28;20203;-63
2021/09/28 09:08:01;;;;;;;5.77;3.47;;;;;;;15.15;73.27;97483.47;5115691;28;20190;-63
2021/09/28 09:10:35;;;;;;;6.07;3.40;;;;;;;15.43;70.19;97490.53;5116164;28;20682;-63
2021/09/28 09:13:01;;;;;;;9.27;3.50;;;;;;;15.26;70.61;97492.38;5116336;28;20180;-63
2021/09/28 09:15:31;;;;;;;4.17;2.60;;;;;;;15.42;67.77;97491.59;5116216;28;20540;-63
2021/09/28 09:18:00;;;;;;;3.07;2.87;;;;;;;15.63;67.52;97487.44;5116139;28;20180;-63
2021/09/28 09:20:44;;;;;;;3.87;2.80;;;;;;;15.74;66.93;97484.72;5115557;28;20207;-63
2021/09/28 09:23:12;;;;;;;4.20;2.73;;;;;;;15.73;66.80;97485.75;5102370;28;20259;-63
2021/09/28 09:25:38;;;;;;;3.90;2.90;;;;;;;15.80;67.73;97483.75;5116108;28;20184;-63
2021/09/28 09:28:21;;;;;;;4.80;3.13;;;;;;;15.74;68.08;97482.06;5115367;28;20264;-63
2021/09/28 09:30:46;;;;;;;6.13;3.00;;;;;;;15.72;67.70;97484.16;5115582;28;20200;-63
2021/09/28 09:33:12;;;;;;;6.83;4.13;;;;;;;15.24;70.59;97479.41;5115867;28;20295;-63
2021/09/28 09:35:37;;;;;;;4.63;3.70;;;;;;;15.12;71.13;97475.22;5114844;28;20237;-63
2021/09/28 09:38:07;;;;;;;3.93;3.07;;;;;;;15.23;70.35;97472.50;5115338;28;20190;-63
2021/09/28 09:40:43;;;;;;;3.80;3.40;;;;;;;15.31;69.18;97473.97;5097418;28;20180;-63
2021/09/28 09:43:10;;;;;;;3.67;2.90;;;;;;;15.41;68.29;97471.47;5100028;28;20889;-63
2021/09/28 09:45:37;;;;;;;4.57;2.53;;;;;;;15.27;66.19;97470.97;5114685;28;20233;-62
2021/09/28 09:48:35;;;;;;;2.87;2.50;;;;;;;15.15;65.78;97453.63;5115328;28;20604;-63
2021/09/28 09:51:06;;;;;;;4.73;2.50;;;;;;;15.59;65.79;97454.63;5079356;28;20231;-63
2021/09/28 09:53:33;;;;;;;5.23;2.37;;;;;;;15.53;66.90;97451.09;5115345;28;20183;-63
2021/09/28 09:55:59;;;;;;;2.40;2.07;;;;;;;15.46;62.29;97453.06;5115102;28;20219;-63
2021/09/28 09:58:25;;;;;;;4.17;2.37;;;;;;;15.47;63.41;97454.66;5114878;28;20192;-63
2021/09/28 10:00:54;;;;;;;3.83;2.33;;;;;;;15.73;63.71;97466.44;5115145;28;20187;-63
2021/09/28 10:03:20;;;;;;;3.00;1.87;;;;;;;15.73;62.68;97453.22;5114943;28;20183;-63
2021/09/28 10:05:46;;;;;;;5.33;2.20;;;;;;;15.97;62.16;97449.34;5114931;28;20180;-63
2021/09/28 10:08:13;;;;;;;2.10;1.90;;;;;;;15.79;61.18;97442.50;5095675;28;20179;-63
2021/09/28 10:10:43;;;;;;;6.77;2.10;;;;;;;15.77;62.48;97439.28;5114887;28;20178;-63
2021/09/28 10:13:47;;;;;;;3.80;2.13;;;;;;;15.72;63.72;97444.50;5114897;28;20168;-63
2021/09/28 10:16:38;;;;;;;2.23;1.93;;;;;;;15.80;61.19;97430.06;5114842;28;20204;-63
2021/09/28 10:19:25;;;;;;;5.37;2.03;;;;;;;16.35;61.12;97435.28;5114738;28;20179;-63
2021/09/28 10:21:51;;;;;;;2.40;2.20;;;;;;;16.87;59.90;97429.50;5112145;28;20723;-63
2021/09/28 10:24:31;;;;;;;4.17;2.00;;;;;;;16.60;60.24;97425.00;5109362;28;20271;-63
2021/09/28 10:26:59;;;;;;;3.63;2.60;;;;;;;16.22;63.89;97428.50;5094933;28;20188;-63
2021/09/28 10:29:38;;;;;;;5.33;2.47;;;;;;;16.28;65.78;97428.56;5113259;28;20592;-63
2021/09/28 10:32:22;;;;;;;3.00;2.17;;;;;;;15.93;65.76;97423.66;5113243;28;20768;-63
2021/09/28 10:35:05;;;;;;;4.83;2.70;;;;;;;15.70;67.20;97433.38;5113391;28;20172;-63
2021/09/28 10:37:53;;;;;;;2.80;2.60;;;;;;;15.78;65.70;97432.16;5112367;28;20188;-63
2021/09/28 10:40:21;;;;;;;6.43;2.97;;;;;;;15.47;67.62;97428.25;5099564;28;20172;-63
2021/09/28 10:43:03;;;;;;;4.00;2.67;;;;;;;15.47;67.33;97422.97;5113474;28;20180;-63
2021/09/28 10:45:29;;;;;;;4.73;2.97;;;;;;;15.41;66.64;97416.00;5113199;28;20190;-63
2021/09/28 10:47:57;;;;;;;2.57;2.40;;;;;;;15.78;65.73;97414.44;5112572;28;20640;-63
2021/09/28 10:50:25;;;;;;;2.37;2.17;;;;;;;16.19;64.19;97413.13;5114261;28;20180;-63
2021/09/28 10:52:52;;;;;;;3.07;2.60;;;;;;;16.34;62.27;97398.47;5114352;28;20271;-63
2021/09/28 10:55:19;;;;;;;3.30;2.60;;;;;;;15.98;63.12;97399.91;5114109;28;20228;-63
2021/09/28 10:57:54;;;;;;;3.83;2.63;;;;;;;15.96;63.92;97394.84;5114175;28;20180;-63
2021/09/28 11:00:24;;;;;;;3.93;2.33;;;;;;;16.06;63.95;97396.81;5114056;28;20640;-63
2021/09/28 11:02:58;;;;;;;3.47;2.73;;;;;;;15.92;63.08;97398.25;5114098;28;20518;-63
2021/09/28 11:05:32;;;;;;;2.97;2.57;;;;;;;16.23;61.98;97400.19;5110075;28;20176;-63
2021/09/28 11:08:02;;;;;;;2.57;2.30;;;;;;;16.02;62.05;97395.72;5094474;28;20175;-63
2021/09/28 11:10:32;;;;;;;2.27;2.13;;;;;;;16.02;62.66;97395.72;5113032;28;20259;-63
2021/09/28 11:12:58;;;;;;;3.27;2.20;;;;;;;16.12;60.75;97386.06;5113405;28;20221;-63
2021/09/28 11:15:26;;;;;;;2.80;2.50;;;;;;;15.85;61.02;97387.84;5113171;28;20187;-63
2021/09/28 11:17:52;;;;;;;4.20;2.07;;;;;;;16.13;60.84;97378.94;5113279;28;20183;-63
2021/09/28 11:23:01;;;;;;;6.00;2.37;;;;;;;16.78;59.16;97362.16;4385749;22;20412;-59
2021/09/28 11:25:27;;;;;;;2.43;2.17;;;;;;;16.72;58.95;97373.78;5081376;28;20193;-60
2021/09/28 11:28:10;;;;;;;5.03;2.20;;;;;;;16.99;57.99;97370.03;5078452;28;20197;-60
2021/09/28 11:30:49;;;;;;;3.67;1.90;;;;;;;17.31;56.58;97367.34;5073018;28;20177;-60
2021/09/28 11:33:15;;;;;;;2.50;2.30;;;;;;;16.54;58.20;97373.03;5078796;28;20175;-60
2021/09/28 11:36:01;;;;;;;2.73;2.50;;;;;;;16.62;59.25;97358.56;5074903;28;20539;-60
2021/09/28 11:38:32;;;;;;;3.03;2.70;;;;;;;16.60;57.77;97358.03;5083351;28;20232;-59
2021/09/28 11:41:05;;;;;;;2.57;2.37;;;;;;;16.68;58.45;97359.41;5081399;28;20264;-59
2021/09/28 11:43:30;;;;;;;2.90;2.00;;;;;;;16.91;59.09;97351.94;5080552;28;20215;-59